Time;durP1;ratioP1;P1;durP2;ratioP2;P2;SDS_P1;SDS_P2;PMS_P1;PMS_P2;Temp;Humidity;BMP_temperature;BMP_pressure;BME280_temperature;BME280_humidity;BME280_pressure;Samples;Min_cycle;Max_cycle;Signal;HPM_P1;HPM_P2
2023/01/14 00:01:10;;;;;;;3.15;2.85;;;;;;;15.73;47.08;93467.16;5023546;28;20038;-93
2023/01/14 00:03:38;;;;;;;2.60;2.40;;;;;;;15.79;47.35;93473.38;5004327;28;20073;-92
2023/01/14 00:06:04;;;;;;;3.35;2.50;;;;;;;15.74;47.38;93469.41;5007013;28;20041;-93
2023/01/14 00:08:30;;;;;;;2.97;2.70;;;;;;;15.76;47.22;93466.19;5031717;28;20032;-93
2023/01/14 00:11:02;;;;;;;2.83;2.63;;;;;;;15.73;47.29;93461.72;4990923;28;20495;-93
2023/01/14 00:13:27;;;;;;;2.95;2.65;;;;;;;15.73;47.55;93454.28;4988420;28;20090;-93
2023/01/14 00:15:55;;;;;;;2.60;2.40;;;;;;;15.74;47.39;93458.50;5008089;28;20038;-93
2023/01/14 00:18:21;;;;;;;2.80;2.50;;;;;;;15.74;47.62;93471.38;4991102;28;20073;-92
2023/01/14 00:21:06;;;;;;;2.40;2.20;;;;;;;15.76;47.20;93488.00;5025092;28;20419;-93
2023/01/14 00:23:40;;;;;;;3.15;2.85;;;;;;;15.75;47.37;93489.97;5005441;28;20107;-92
2023/01/14 00:26:11;;;;;;;2.80;2.47;;;;;;;15.74;47.42;93506.81;4967608;28;20045;-92
2023/01/14 00:28:36;;;;;;;2.92;2.42;;;;;;;15.76;47.44;93504.34;4969289;28;20492;-92
2023/01/14 00:31:10;;;;;;;3.97;2.47;;;;;;;15.81;47.11;93505.56;5001859;28;20048;-93
2023/01/14 00:33:36;;;;;;;3.80;2.55;;;;;;;15.76;47.24;93510.53;4999870;28;20314;-92
2023/01/14 00:36:02;;;;;;;2.72;2.20;;;;;;;15.75;47.09;93517.22;4970191;28;20045;-92
2023/01/14 00:38:27;;;;;;;2.47;2.28;;;;;;;15.75;47.38;93509.06;4986152;28;20046;-91
2023/01/14 00:41:16;;;;;;;2.92;2.58;;;;;;;15.76;47.22;93517.97;5009201;28;20045;-92
2023/01/14 00:43:48;;;;;;;2.50;2.10;;;;;;;15.74;47.38;93518.47;5033467;28;20045;-93
2023/01/14 00:46:18;;;;;;;2.92;2.17;;;;;;;15.75;47.04;93522.69;5010039;28;20112;-93
2023/01/14 00:48:44;;;;;;;2.83;2.40;;;;;;;15.71;47.30;93511.25;5028690;28;20037;-93
2023/01/14 00:51:10;;;;;;;2.70;2.17;;;;;;;15.77;46.96;93514.00;4995701;28;20041;-92
2023/01/14 00:53:36;;;;;;;3.03;2.10;;;;;;;15.73;47.29;93499.88;5031489;28;20065;-92
2023/01/14 00:56:02;;;;;;;2.35;2.15;;;;;;;15.73;47.15;93522.41;5010002;28;20468;-93
2023/01/14 00:58:27;;;;;;;2.60;2.30;;;;;;;15.72;47.44;93528.34;5018461;28;20072;-93
2023/01/14 01:00:53;;;;;;;2.13;1.92;;;;;;;15.74;47.24;93539.53;5044883;28;20042;-92
2023/01/14 01:03:31;;;;;;;2.38;2.17;;;;;;;15.73;47.56;93541.50;5026008;28;20057;-93
2023/01/14 01:05:56;;;;;;;2.15;1.92;;;;;;;15.73;47.55;93546.19;5027278;28;20049;-93
2023/01/14 01:08:22;;;;;;;2.97;2.10;;;;;;;15.69;47.32;93535.53;5003560;28;20404;-92
2023/01/14 01:10:49;;;;;;;2.13;1.92;;;;;;;15.73;47.32;93557.84;5028096;28;20037;-93
2023/01/14 01:13:14;;;;;;;2.40;2.20;;;;;;;15.77;47.49;93560.34;5008920;28;20050;-94
2023/01/14 01:15:40;;;;;;;2.40;2.20;;;;;;;15.74;47.29;93562.06;5023220;28;20063;-92
2023/01/14 01:18:06;;;;;;;2.10;1.90;;;;;;;15.75;46.95;93571.00;4993949;28;20072;-92
2023/01/14 01:20:31;;;;;;;2.20;1.95;;;;;;;15.74;47.19;93572.97;5016429;28;20030;-93
2023/01/14 01:22:57;;;;;;;2.28;1.85;;;;;;;15.76;47.13;93575.22;5011746;28;20045;-93
2023/01/14 01:25:22;;;;;;;1.83;1.65;;;;;;;15.75;47.51;93565.53;4985457;28;20053;-92
2023/01/14 01:27:47;;;;;;;2.20;2.00;;;;;;;15.74;47.29;93570.25;5002818;28;20045;-93
2023/01/14 01:30:15;;;;;;;4.22;2.13;;;;;;;15.73;47.45;93552.41;5000652;28;20038;-92
2023/01/14 01:32:41;;;;;;;1.83;1.70;;;;;;;15.77;47.26;93573.97;5022084;28;20029;-92
2023/01/14 01:35:06;;;;;;;2.78;2.00;;;;;;;15.73;47.30;93560.56;5005723;28;20506;-91
2023/01/14 01:37:32;;;;;;;2.10;1.80;;;;;;;15.73;47.31;93560.56;5033889;28;20045;-93
2023/01/14 01:40:04;;;;;;;2.20;2.00;;;;;;;15.73;47.39;93557.09;5002132;28;20042;-92
2023/01/14 01:42:33;;;;;;;2.95;2.08;;;;;;;15.68;47.54;93552.38;5004152;28;20044;-92
2023/01/14 01:45:18;;;;;;;2.30;1.98;;;;;;;15.72;47.22;93556.34;5026182;28;20056;-93
2023/01/14 01:47:43;;;;;;;2.20;1.73;;;;;;;15.71;47.20;93554.88;4971512;28;20030;-92
2023/01/14 01:50:09;;;;;;;2.03;1.70;;;;;;;15.73;47.68;93566.03;5006312;28;20037;-94
2023/01/14 01:52:35;;;;;;;2.55;2.15;;;;;;;15.75;47.37;93571.00;5005282;28;20099;-92
2023/01/14 01:55:06;;;;;;;2.17;1.73;;;;;;;15.73;47.08;93574.22;4990708;28;20034;-93
2023/01/14 01:57:32;;;;;;;2.05;1.58;;;;;;;15.73;47.12;93585.09;5006938;28;20041;-93
2023/01/14 02:00:00;;;;;;;2.05;1.80;;;;;;;15.71;47.41;93570.47;5011362;28;20048;-93
2023/01/14 02:02:26;;;;;;;1.88;1.67;;;;;;;15.69;47.67;93570.22;5027687;28;20038;-93
2023/01/14 02:04:51;;;;;;;2.45;1.90;;;;;;;15.69;47.47;93572.94;5005149;28;20479;-93
2023/01/14 02:07:20;;;;;;;1.95;1.50;;;;;;;15.69;47.40;93568.25;4985129;28;20058;-92
2023/01/14 02:09:45;;;;;;;1.50;1.33;;;;;;;15.69;47.26;93576.41;5000360;28;20042;-92
2023/01/14 02:12:21;;;;;;;1.95;1.63;;;;;;;15.72;47.16;93574.69;4971163;28;20034;-93
2023/01/14 02:15:16;;;;;;;1.83;1.60;;;;;;;15.72;47.13;93572.72;5004422;28;20034;-93
2023/01/14 02:18:13;;;;;;;1.50;1.40;;;;;;;15.77;46.99;93569.28;5004026;28;20539;-93
2023/01/14 02:20:45;;;;;;;2.60;1.50;;;;;;;15.75;47.21;93576.44;5006586;28;20046;-93
2023/01/14 02:23:35;;;;;;;2.40;1.33;;;;;;;15.77;46.88;93573.97;4991250;28;20064;-92
2023/01/14 02:26:29;;;;;;;1.63;1.40;;;;;;;15.72;47.33;93570.00;4987766;28;20432;-92
2023/01/14 02:29:22;;;;;;;1.42;1.30;;;;;;;15.75;47.11;93573.72;5016230;28;20051;-93
2023/01/14 02:32:01;;;;;;;1.40;1.30;;;;;;;15.71;47.24;93581.38;5005276;28;20046;-93
2023/01/14 02:34:29;;;;;;;1.52;1.30;;;;;;;15.74;47.22;93588.56;5006795;28;20061;-92
2023/01/14 02:37:06;;;;;;;1.50;1.40;;;;;;;15.70;47.61;93593.50;5017937;28;20030;-93
2023/01/14 02:39:34;;;;;;;2.17;1.27;;;;;;;15.67;47.21;93592.50;4976318;28;20048;-92
2023/01/14 02:45:10;;;;;;;1.75;1.40;;;;;;;15.71;47.36;93584.09;5004607;28;20116;-91
2023/01/14 02:47:35;;;;;;;1.98;1.40;;;;;;;15.71;47.31;93584.84;5005518;28;20130;-93
2023/01/14 02:50:01;;;;;;;1.20;1.10;;;;;;;15.69;47.14;93583.84;4986851;28;20046;-93
2023/01/14 02:52:27;;;;;;;2.42;1.40;;;;;;;15.72;47.16;93588.31;5005251;28;20057;-93
2023/01/14 02:54:56;;;;;;;1.48;1.38;;;;;;;15.71;46.79;93584.84;5004671;28;20062;-93
2023/01/14 02:57:59;;;;;;;1.20;1.10;;;;;;;15.71;47.12;93592.28;4989433;28;20046;-93
2023/01/14 03:00:29;;;;;;;1.55;1.27;;;;;;;15.73;47.05;93604.19;5045751;28;20066;-92
2023/01/14 03:03:20;;;;;;;1.50;1.23;;;;;;;15.73;47.18;93585.09;5013103;28;20041;-93
2023/01/14 03:06:12;;;;;;;2.20;1.17;;;;;;;15.76;46.89;93592.31;5009301;28;20038;-93
2023/01/14 03:08:49;;;;;;;2.05;1.25;;;;;;;15.69;47.28;93589.28;4997356;28;20043;-92
2023/01/14 03:11:17;;;;;;;3.15;1.30;;;;;;;15.71;46.99;93598.47;5019296;28;20042;-93
2023/01/14 03:13:45;;;;;;;1.55;1.10;;;;;;;15.73;47.37;93596.00;4977212;28;20015;-92
2023/01/14 03:16:25;;;;;;;1.75;1.45;;;;;;;15.67;47.34;93594.47;5027202;28;20046;-93
2023/01/14 03:19:14;;;;;;;2.45;1.38;;;;;;;15.70;47.14;93599.72;5025829;28;20038;-93
2023/01/14 03:21:43;;;;;;;1.40;1.13;;;;;;;15.71;46.92;93611.34;4994915;28;20046;-92
2023/01/14 03:24:12;;;;;;;1.30;1.20;;;;;;;15.68;47.07;93604.16;4995995;28;20068;-92
2023/01/14 03:26:37;;;;;;;1.33;1.10;;;;;;;15.67;47.25;93606.13;4989052;28;20161;-92
2023/01/14 03:29:10;;;;;;;1.42;0.98;;;;;;;15.67;47.40;93608.09;4995507;28;20037;-92
2023/01/14 03:31:38;;;;;;;0.90;0.90;;;;;;;15.62;47.09;93606.84;4992801;28;20045;-93
2023/01/14 03:34:17;;;;;;;2.20;1.20;;;;;;;15.69;47.18;93611.84;4991343;28;20050;-92
2023/01/14 03:36:43;;;;;;;1.25;1.15;;;;;;;15.67;47.38;93606.13;5021787;28;20034;-92
2023/01/14 03:39:13;;;;;;;1.42;1.10;;;;;;;15.67;47.21;93603.41;4985858;28;20038;-92
2023/01/14 03:44:29;;;;;;;1.58;1.10;;;;;;;15.67;47.22;93619.75;5027503;28;20068;-92
2023/01/14 03:46:55;;;;;;;1.67;1.33;;;;;;;15.69;46.98;93614.56;4976962;28;20062;-93
2023/01/14 03:49:20;;;;;;;1.13;1.02;;;;;;;15.70;47.08;93621.50;4976270;28;20030;-91
2023/01/14 03:51:52;;;;;;;2.08;1.20;;;;;;;15.70;47.24;93618.78;5005607;28;20082;-92
2023/01/14 03:54:24;;;;;;;1.17;1.05;;;;;;;15.66;47.36;93621.00;4986110;28;20050;-92
2023/01/14 03:57:01;;;;;;;1.48;1.20;;;;;;;15.67;47.16;93621.72;5004774;28;20066;-93
2023/01/14 03:59:34;;;;;;;2.58;0.95;;;;;;;15.71;47.03;93633.91;5009424;28;20057;-93
2023/01/14 04:02:00;;;;;;;1.20;1.10;;;;;;;15.70;47.16;93651.50;5001072;28;20039;-92
2023/01/14 04:04:26;;;;;;;1.10;0.93;;;;;;;15.71;47.44;93644.81;4987840;28;20038;-92
2023/01/14 04:06:51;;;;;;;0.90;0.90;;;;;;;15.70;47.20;93648.75;5026993;28;20103;-92
2023/01/14 04:09:16;;;;;;;1.30;0.90;;;;;;;15.67;47.01;93662.63;4994235;28;20045;-93
2023/01/14 04:12:06;;;;;;;0.80;0.80;;;;;;;15.68;47.28;93664.84;5026097;28;20049;-93
2023/01/14 04:17:16;;;;;;;1.55;0.90;;;;;;;15.66;46.82;93658.41;5005620;28;20169;-92
2023/01/14 04:19:41;;;;;;;1.58;1.45;;;;;;;15.70;46.88;93656.19;4984020;28;20046;-92
2023/01/14 04:22:15;;;;;;;1.30;0.90;;;;;;;15.67;46.96;93663.34;4981415;28;20042;-93
2023/01/14 04:24:41;;;;;;;1.45;0.80;;;;;;;15.71;46.78;93663.13;5000296;28;20044;-93
2023/01/14 04:27:06;;;;;;;0.93;0.90;;;;;;;15.67;47.26;93663.34;4997974;28;20038;-92
2023/01/14 04:29:32;;;;;;;1.55;1.15;;;;;;;15.68;47.01;93662.13;5002874;28;20554;-92
2023/01/14 04:31:57;;;;;;;1.23;0.88;;;;;;;15.72;46.95;93661.91;4936548;28;20568;-92
2023/01/14 04:34:31;;;;;;;1.50;0.93;;;;;;;15.71;46.96;93660.41;4953162;28;20868;-92
2023/01/14 04:36:57;;;;;;;1.33;1.05;;;;;;;15.71;46.84;93658.44;4975389;28;20050;-93
2023/01/14 04:39:22;;;;;;;1.05;0.88;;;;;;;15.75;46.69;93669.13;4974252;28;20043;-93
2023/01/14 04:44:31;;;;;;;0.75;0.73;;;;;;;15.73;47.14;93658.69;4988822;28;20111;-92
2023/01/14 04:46:57;;;;;;;0.70;0.70;;;;;;;15.66;47.40;93661.88;4989649;28;20076;-93
2023/01/14 04:49:24;;;;;;;0.93;0.82;;;;;;;15.68;46.63;93664.84;4975785;28;20049;-93
2023/01/14 04:51:50;;;;;;;0.90;0.80;;;;;;;15.66;47.02;93666.56;4990093;28;20037;-93
2023/01/14 04:54:24;;;;;;;0.70;0.63;;;;;;;15.69;46.99;93665.59;4995868;28;20038;-93
2023/01/14 04:56:50;;;;;;;0.82;0.70;;;;;;;15.69;47.28;93668.31;4971254;28;20060;-91
2023/01/14 04:59:17;;;;;;;1.23;0.80;;;;;;;15.69;47.44;93666.34;5036826;28;20523;-93
2023/01/14 05:01:43;;;;;;;1.10;0.88;;;;;;;15.75;46.76;93674.56;5044924;28;20032;-92
2023/01/14 05:04:09;;;;;;;0.88;0.80;;;;;;;15.69;46.94;93674.53;5009027;28;20034;-92
2023/01/14 05:06:34;;;;;;;2.03;1.10;;;;;;;15.71;47.06;93677.50;5031753;28;20038;-91
2023/01/14 05:09:00;;;;;;;0.80;0.80;;;;;;;15.68;47.09;93672.28;5011032;28;20065;-92
2023/01/14 05:11:25;;;;;;;1.58;0.70;;;;;;;15.71;47.06;93671.31;5010525;28;20022;-92
2023/01/14 05:13:51;;;;;;;0.70;0.70;;;;;;;15.65;46.86;93674.00;5009127;28;20042;-92
2023/01/14 05:16:16;;;;;;;1.50;0.98;;;;;;;15.71;46.85;93671.31;5018575;28;20370;-93
2023/01/14 05:18:43;;;;;;;0.73;0.60;;;;;;;15.68;47.12;93670.31;5024982;28;20052;-92
2023/01/14 05:21:08;;;;;;;0.77;0.77;;;;;;;15.69;47.04;93662.88;4993277;28;20042;-92
2023/01/14 05:23:36;;;;;;;0.85;0.70;;;;;;;15.67;46.98;93670.78;5028339;28;20044;-92
2023/01/14 05:26:02;;;;;;;0.73;0.57;;;;;;;15.67;46.80;93668.06;5027655;28;20448;-92
2023/01/14 05:28:27;;;;;;;1.05;0.60;;;;;;;15.67;47.09;93676.25;5037022;28;20045;-92
2023/01/14 05:31:05;;;;;;;1.00;0.60;;;;;;;15.76;46.97;93670.59;5011842;28;20048;-92
2023/01/14 05:33:30;;;;;;;1.10;0.90;;;;;;;15.70;46.93;93661.63;5000504;28;20033;-92
2023/01/14 05:35:57;;;;;;;1.23;0.80;;;;;;;15.69;47.34;93662.88;5036352;28;20068;-92
2023/01/14 05:38:24;;;;;;;1.73;0.95;;;;;;;15.68;46.80;93659.41;5027539;28;20053;-92
2023/01/14 05:40:49;;;;;;;0.93;0.70;;;;;;;15.68;46.89;93667.56;5045274;28;20034;-93
2023/01/14 05:46:15;;;;;;;1.13;1.00;;;;;;;15.68;46.75;93666.84;4956905;28;20238;-92
2023/01/14 05:48:40;;;;;;;0.80;0.73;;;;;;;15.64;46.96;93669.78;4952118;28;20042;-92
2023/01/14 05:51:06;;;;;;;1.13;0.73;;;;;;;15.65;47.22;93673.25;4952594;28;20047;-93
2023/01/14 05:53:32;;;;;;;0.93;0.80;;;;;;;15.68;46.95;93667.56;4969947;28;20358;-93
2023/01/14 05:55:58;;;;;;;0.88;0.70;;;;;;;15.65;46.80;93662.34;4954575;28;20049;-92
2023/01/14 05:58:35;;;;;;;1.25;0.80;;;;;;;15.68;46.81;93658.66;4954672;28;20038;-93
2023/01/14 06:06:36;;;;;;;0.70;0.60;;;;;;;15.68;47.12;93653.19;4951163;28;20069;-93
2023/01/14 06:09:04;;;;;;;0.70;0.70;;;;;;;15.63;46.98;93654.66;4952921;28;20074;-92
2023/01/14 06:11:32;;;;;;;1.30;0.50;;;;;;;15.65;46.94;93654.19;4952678;28;20078;-92
2023/01/14 06:13:58;;;;;;;0.77;0.50;;;;;;;15.61;46.90;93651.66;4984855;28;20039;-92
2023/01/14 06:16:27;;;;;;;0.70;0.70;;;;;;;15.61;47.11;93656.38;4978889;28;20050;-93
2023/01/14 06:18:52;;;;;;;0.60;0.60;;;;;;;15.63;46.88;93654.66;4959965;28;20027;-93
2023/01/14 06:21:19;;;;;;;0.93;0.70;;;;;;;15.61;47.15;93659.09;4968105;28;20063;-93
2023/01/14 06:23:45;;;;;;;0.93;0.82;;;;;;;15.66;47.11;93661.13;5029897;28;20032;-92
2023/01/14 06:26:15;;;;;;;1.42;0.70;;;;;;;15.64;46.71;93664.31;5010556;28;20128;-93
2023/01/14 06:28:40;;;;;;;1.10;0.77;;;;;;;15.62;46.71;93663.31;5014313;28;20036;-92
2023/01/14 06:31:13;;;;;;;0.73;0.63;;;;;;;15.66;46.61;93656.41;5009228;28;20049;-92
2023/01/14 06:33:39;;;;;;;1.38;0.82;;;;;;;15.66;46.81;93661.88;4996292;28;20042;-93
2023/01/14 06:36:13;;;;;;;0.57;0.45;;;;;;;15.67;47.07;93659.88;5045267;28;20060;-92
2023/01/14 06:38:40;;;;;;;0.70;0.52;;;;;;;15.68;46.98;93655.94;5015190;28;20041;-93
2023/01/14 06:41:06;;;;;;;0.50;0.50;;;;;;;15.63;47.14;93651.19;5047115;28;20042;-92
2023/01/14 06:43:32;;;;;;;0.70;0.63;;;;;;;15.64;47.01;93655.41;5030290;28;20093;-92
2023/01/14 06:45:57;;;;;;;0.50;0.50;;;;;;;15.68;46.82;93653.94;5044081;28;20064;-93
2023/01/14 06:48:24;;;;;;;1.25;0.68;;;;;;;15.66;46.81;93648.25;4979347;28;20034;-94
2023/01/14 06:50:49;;;;;;;0.52;0.50;;;;;;;15.64;46.89;93645.25;4986252;28;20041;-92
2023/01/14 06:53:15;;;;;;;0.50;0.47;;;;;;;15.68;46.65;93642.31;5012631;28;20099;-93
2023/01/14 06:55:40;;;;;;;0.43;0.43;;;;;;;15.65;47.08;93652.19;5010293;28;20073;-92
2023/01/14 06:58:07;;;;;;;0.60;0.60;;;;;;;15.65;46.77;93654.91;4998406;28;20041;-93
2023/01/14 07:00:32;;;;;;;0.47;0.40;;;;;;;15.67;46.61;93651.72;5030786;28;20033;-92
2023/01/14 07:03:00;;;;;;;1.30;0.60;;;;;;;15.68;46.77;93658.66;5030724;28;20056;-93
2023/01/14 07:05:25;;;;;;;0.82;0.57;;;;;;;15.63;46.92;93653.91;5027440;28;20258;-92
2023/01/14 07:07:51;;;;;;;0.65;0.50;;;;;;;15.64;46.82;93642.53;5012237;28;20057;-92
2023/01/14 07:10:17;;;;;;;1.08;0.60;;;;;;;15.63;47.11;93643.00;5027394;28;20079;-93
2023/01/14 07:12:45;;;;;;;0.70;0.50;;;;;;;15.67;46.81;93644.28;5026634;28;20175;-92
2023/01/14 07:15:11;;;;;;;0.50;0.50;;;;;;;15.68;46.99;93645.78;5027523;28;20033;-93
2023/01/14 07:17:37;;;;;;;0.65;0.55;;;;;;;15.68;46.82;93653.19;5042930;28;20129;-92
2023/01/14 07:20:06;;;;;;;0.88;0.60;;;;;;;15.66;46.61;93656.41;5027658;28;20049;-93
2023/01/14 07:22:31;;;;;;;0.52;0.50;;;;;;;15.65;46.76;93652.19;5016107;28;20044;-93
2023/01/14 07:24:56;;;;;;;0.95;0.70;;;;;;;15.62;46.86;93646.97;5044274;28;20029;-93
2023/01/14 07:27:31;;;;;;;0.75;0.63;;;;;;;15.66;46.80;93648.25;5013159;28;20041;-92
2023/01/14 07:30:03;;;;;;;0.68;0.50;;;;;;;15.70;46.79;93653.47;5029404;28;20065;-93
2023/01/14 07:32:28;;;;;;;0.55;0.55;;;;;;;15.68;46.57;93651.22;5026958;28;20025;-92
2023/01/14 07:34:54;;;;;;;0.60;0.55;;;;;;;15.68;46.63;93656.69;5013132;28;20561;-92
2023/01/14 07:37:19;;;;;;;0.50;0.50;;;;;;;15.68;46.74;93666.84;5010957;28;20095;-92
2023/01/14 07:39:45;;;;;;;0.90;0.50;;;;;;;15.70;46.60;93656.94;5009493;28;20038;-93
2023/01/14 07:42:10;;;;;;;0.57;0.50;;;;;;;15.67;46.47;93659.88;5008896;28;20037;-94
2023/01/14 07:44:35;;;;;;;1.27;0.60;;;;;;;15.69;46.60;93647.28;5008991;28;20037;-92
2023/01/14 07:47:01;;;;;;;0.60;0.52;;;;;;;15.71;46.64;93661.16;5016190;28;20037;-92
2023/01/14 07:49:26;;;;;;;1.17;0.60;;;;;;;15.69;46.58;93660.16;5027272;28;20402;-93
2023/01/14 07:51:53;;;;;;;0.57;0.50;;;;;;;15.65;47.01;93656.91;5019576;28;20045;-92
2023/01/14 07:54:18;;;;;;;0.85;0.50;;;;;;;15.68;46.64;93672.28;5023645;28;20046;-92
2023/01/14 07:56:48;;;;;;;0.50;0.50;;;;;;;15.68;46.93;93669.56;5022494;28;20037;-93
2023/01/14 07:59:13;;;;;;;0.55;0.50;;;;;;;15.69;46.65;93668.31;5004860;28;20068;-94
2023/01/14 08:01:39;;;;;;;0.93;0.63;;;;;;;15.72;46.78;93673.56;5009689;28;20041;-93
2023/01/14 08:04:05;;;;;;;0.95;0.68;;;;;;;15.69;46.73;93679.97;5008693;28;20045;-92
2023/01/14 08:06:31;;;;;;;0.63;0.52;;;;;;;15.69;46.57;93676.50;5002136;28;20065;-92
2023/01/14 08:08:58;;;;;;;2.05;0.70;;;;;;;15.68;46.54;93678.47;5030704;28;20052;-92
2023/01/14 08:11:24;;;;;;;0.95;0.60;;;;;;;15.70;46.83;93684.19;4991924;28;20076;-93
2023/01/14 08:13:50;;;;;;;0.40;0.40;;;;;;;15.72;46.54;93692.63;5042525;28;20104;-93
2023/01/14 08:16:24;;;;;;;0.63;0.50;;;;;;;15.70;46.51;93686.16;5021610;28;20045;-93
2023/01/14 08:18:50;;;;;;;0.65;0.50;;;;;;;15.72;46.45;93686.44;5029516;28;20038;-93
2023/01/14 08:21:15;;;;;;;0.82;0.60;;;;;;;15.69;46.32;93688.16;5005788;28;20049;-93
2023/01/14 08:23:42;;;;;;;0.55;0.55;;;;;;;15.63;46.95;93681.16;5003346;28;20034;-92
2023/01/14 08:26:09;;;;;;;2.15;0.68;;;;;;;15.67;46.68;93682.44;5021562;28;20044;-93
2023/01/14 08:28:34;;;;;;;1.20;0.50;;;;;;;15.69;46.95;93687.41;5005838;28;20499;-92
2023/01/14 08:31:04;;;;;;;0.65;0.60;;;;;;;15.67;46.79;93678.97;5009385;28;20037;-93
2023/01/14 08:33:30;;;;;;;2.33;0.73;;;;;;;15.56;45.45;93681.63;5007813;28;20080;-92
2023/01/14 08:35:55;;;;;;;1.15;0.60;;;;;;;15.52;45.95;93686.53;5011608;28;20287;-92
2023/01/14 08:38:21;;;;;;;1.67;0.88;;;;;;;15.53;46.63;93691.50;5026610;28;20060;-92
2023/01/14 08:40:48;;;;;;;1.30;0.43;;;;;;;15.54;45.93;93684.81;5012233;28;20503;-92
2023/01/14 08:43:14;;;;;;;1.60;0.50;;;;;;;15.58;46.23;93692.78;4994406;28;20038;-92
2023/01/14 08:45:40;;;;;;;2.40;0.70;;;;;;;15.60;46.30;93687.56;5046128;28;20110;-91
2023/01/14 08:48:06;;;;;;;0.90;0.60;;;;;;;15.60;46.44;93682.88;5010579;28;20033;-91
2023/01/14 08:50:31;;;;;;;1.52;0.40;;;;;;;15.62;46.27;93679.66;4998914;28;20044;-92
2023/01/14 08:52:57;;;;;;;0.85;0.57;;;;;;;15.60;46.38;93671.22;5013524;28;20021;-94
2023/01/14 08:55:22;;;;;;;0.57;0.40;;;;;;;15.63;46.21;93670.25;5008407;28;20535;-93
2023/01/14 08:57:47;;;;;;;0.85;0.40;;;;;;;15.62;46.59;93674.22;5012295;28;20029;-93
2023/01/14 09:00:14;;;;;;;2.03;0.70;;;;;;;15.63;46.51;93664.81;5011157;28;20044;-91
2023/01/14 09:02:39;;;;;;;0.70;0.50;;;;;;;15.62;46.52;93671.50;4995446;28;20052;-94
2023/01/14 09:05:05;;;;;;;1.65;0.60;;;;;;;15.65;46.54;93674.00;5026817;28;20041;-92
2023/01/14 09:18:27;;;;;;;0.40;0.40;;;;;;;15.63;46.44;93662.84;5031201;28;20056;-93
2023/01/14 09:20:58;;;;;;;0.40;0.40;;;;;;;15.67;46.62;93657.16;5028101;28;20041;-92
2023/01/14 09:23:24;;;;;;;0.95;0.52;;;;;;;15.66;46.77;93663.84;5010029;28;20060;-91
2023/01/14 09:25:49;;;;;;;0.70;0.60;;;;;;;15.61;46.56;93667.28;5007863;28;20041;-93
2023/01/14 09:28:14;;;;;;;0.85;0.43;;;;;;;15.64;46.29;93667.06;5008264;28;20038;-93
2023/01/14 09:30:40;;;;;;;0.43;0.30;;;;;;;15.65;46.69;93671.28;5011188;28;20364;-92
2023/01/14 09:33:06;;;;;;;0.75;0.40;;;;;;;15.64;46.62;93671.75;5011130;28;20033;-92
2023/01/14 09:35:33;;;;;;;1.02;0.40;;;;;;;15.67;46.68;93662.63;5003227;28;20041;-93
2023/01/14 09:38:00;;;;;;;0.50;0.30;;;;;;;15.67;46.52;93665.34;5008482;28;20057;-91
2023/01/14 09:40:25;;;;;;;0.50;0.43;;;;;;;15.67;46.31;93655.19;5009969;28;20041;-93
2023/01/14 09:42:51;;;;;;;1.67;0.60;;;;;;;15.67;46.20;93663.34;5044195;28;20038;-92
2023/01/14 09:45:32;;;;;;;1.20;0.50;;;;;;;15.67;46.54;93649.72;4993481;28;20101;-92
2023/01/14 09:47:59;;;;;;;0.60;0.40;;;;;;;15.67;46.55;93649.72;5024274;28;20046;-91
2023/01/14 09:50:35;;;;;;;0.55;0.50;;;;;;;15.68;46.32;93650.47;5022517;28;20503;-92
2023/01/14 09:53:06;;;;;;;1.33;0.40;;;;;;;15.65;46.47;93649.47;5024169;28;20064;-92
2023/01/14 09:55:36;;;;;;;0.70;0.70;;;;;;;15.68;46.37;93651.22;5020351;28;20058;-92
2023/01/14 09:58:04;;;;;;;0.85;0.65;;;;;;;15.67;46.58;93640.81;5021137;28;20037;-93
2023/01/14 10:00:51;;;;;;;0.45;0.32;;;;;;;15.67;46.40;93646.25;5011128;28;20121;-92
2023/01/14 10:03:25;;;;;;;0.57;0.57;;;;;;;15.66;46.81;93642.78;5026729;28;20442;-92
2023/01/14 10:05:56;;;;;;;0.70;0.40;;;;;;;15.65;46.67;93638.56;5039102;28;20048;-92
2023/01/14 10:08:22;;;;;;;0.75;0.40;;;;;;;15.65;46.73;93635.84;4988949;28;20042;-94
2023/01/14 10:10:47;;;;;;;2.72;0.40;;;;;;;15.69;46.50;93630.16;4995571;28;20037;-92
2023/01/14 10:13:20;;;;;;;1.75;0.40;;;;;;;15.69;46.67;93625.47;4968437;28;20043;-93
2023/01/14 10:15:57;;;;;;;0.40;0.40;;;;;;;15.68;46.67;93618.53;5014501;28;20088;-92
2023/01/14 10:18:25;;;;;;;0.52;0.40;;;;;;;15.73;46.44;93617.06;4993248;28;20144;-93
2023/01/14 10:20:55;;;;;;;0.60;0.40;;;;;;;15.70;46.12;93618.03;5013323;28;20045;-92
2023/01/14 10:23:24;;;;;;;0.53;0.40;;;;;;;15.70;46.28;93602.44;5001793;28;20046;-92
2023/01/14 10:25:52;;;;;;;4.38;2.42;;;;;;;15.73;46.27;93606.91;5018992;28;20310;-93
2023/01/14 10:28:23;;;;;;;6.75;2.22;;;;;;;15.67;46.50;93595.22;5002109;28;20031;-92
2023/01/14 10:31:21;;;;;;;4.53;1.60;;;;;;;15.72;46.71;93591.03;5014928;28;20034;-92
2023/01/14 10:33:56;;;;;;;2.20;1.17;;;;;;;15.68;46.58;93585.81;4969844;28;20039;-92
2023/01/14 10:36:22;;;;;;;4.82;1.35;;;;;;;15.67;46.60;93578.13;5007108;28;20038;-91
2023/01/14 10:38:48;;;;;;;5.10;2.10;;;;;;;15.67;46.54;93578.88;4946821;28;20050;-93
2023/01/14 10:41:13;;;;;;;6.43;3.08;;;;;;;15.70;46.72;93572.47;4958229;28;20096;-91
2023/01/14 10:43:42;;;;;;;5.28;1.80;;;;;;;15.66;46.61;93568.47;5001772;28;20096;-91
2023/01/14 10:46:17;;;;;;;8.38;2.47;;;;;;;15.70;46.63;93568.97;4985163;28;20382;-92
2023/01/14 10:48:51;;;;;;;8.38;2.95;;;;;;;15.71;46.73;93562.31;4991447;28;20511;-92
2023/01/14 10:51:33;;;;;;;7.10;3.42;;;;;;;15.69;46.74;93556.59;5003728;28;20072;-93
2023/01/14 10:54:08;;;;;;;10.07;4.43;;;;;;;15.70;46.62;93558.09;4991269;28;20037;-94
2023/01/14 10:56:33;;;;;;;11.60;4.50;;;;;;;15.68;46.88;93555.09;4978649;28;20043;-92
2023/01/14 10:58:59;;;;;;;17.48;6.75;;;;;;;15.71;46.90;93551.41;4966481;28;20389;-93
2023/01/14 11:01:24;;;;;;;23.88;6.78;;;;;;;15.70;46.60;93544.47;4969789;28;20050;-95
2023/01/14 11:03:49;;;;;;;31.33;8.43;;;;;;;15.66;46.79;93546.66;4958295;28;20387;-91
2023/01/14 11:06:16;;;;;;;19.10;7.13;;;;;;;15.66;46.82;93539.22;4981150;28;20496;-94
2023/01/14 11:08:47;;;;;;;18.88;7.25;;;;;;;15.66;46.83;93536.50;4989089;28;20039;-93
2023/01/14 11:11:14;;;;;;;25.55;8.10;;;;;;;15.69;46.59;93530.09;5016576;28;20077;-93
2023/01/14 11:13:44;;;;;;;27.70;8.65;;;;;;;15.72;46.54;93531.09;4960179;28;20039;-93
2023/01/14 11:16:21;;;;;;;31.48;9.50;;;;;;;15.69;46.49;93519.19;4982642;28;20050;-93
2023/01/14 11:18:59;;;;;;;29.27;9.30;;;;;;;15.68;46.55;93523.16;5008437;28;20068;-92
2023/01/14 11:21:26;;;;;;;33.15;10.52;;;;;;;15.67;46.92;93532.56;4990628;28;20044;-92
2023/01/14 11:23:54;;;;;;;35.38;11.65;;;;;;;15.71;46.64;93519.44;5009545;28;20054;-92
2023/01/14 11:26:22;;;;;;;37.65;10.55;;;;;;;15.71;46.46;93514.00;4997155;28;20477;-92
2023/01/14 11:28:48;;;;;;;36.50;12.18;;;;;;;15.71;46.33;93502.34;5010779;28;20433;-93
2023/01/14 11:31:17;;;;;;;41.80;14.55;;;;;;;15.70;46.92;93509.78;5007950;28;20132;-93
2023/01/14 11:33:50;;;;;;;35.00;15.02;;;;;;;15.71;46.90;93492.19;4993723;28;20041;-93
2023/01/14 11:36:26;;;;;;;37.00;14.85;;;;;;;15.71;46.57;93494.91;4997607;28;20043;-92
2023/01/14 11:38:53;;;;;;;31.50;9.85;;;;;;;15.62;44.99;93495.13;4983077;28;20049;-93
2023/01/14 11:41:39;;;;;;;30.20;10.00;;;;;;;15.53;45.04;93481.69;4977061;28;20053;-92
2023/01/14 11:44:18;;;;;;;19.95;6.63;;;;;;;15.45;43.76;93483.38;4953437;28;20064;-92
2023/01/14 11:46:45;;;;;;;25.50;8.20;;;;;;;15.51;44.42;93480.69;4982176;28;20045;-94
2023/01/14 11:49:18;;;;;;;23.42;8.15;;;;;;;15.50;44.85;93471.78;4989335;28;20515;-93
2023/01/14 11:52:04;;;;;;;22.67;8.82;;;;;;;15.52;45.12;93460.41;4961794;28;20088;-93
2023/01/14 11:54:35;;;;;;;22.00;8.63;;;;;;;15.54;44.75;93455.19;4983889;28;20054;-93
2023/01/14 11:57:01;;;;;;;29.75;9.10;;;;;;;15.53;44.83;93461.88;4986460;28;20061;-93
2023/01/14 11:59:35;;;;;;;27.85;11.13;;;;;;;15.57;45.64;93459.69;5021403;28;20038;-93
2023/01/14 12:02:17;;;;;;;33.65;11.98;;;;;;;15.59;45.84;93463.41;4960728;28;20073;-92
2023/01/14 12:04:49;;;;;;;33.15;12.13;;;;;;;15.59;45.98;93449.06;4993079;28;20030;-92
2023/01/14 12:07:35;;;;;;;31.42;10.68;;;;;;;15.63;46.02;93447.56;4976357;28;20124;-92
2023/01/14 12:10:04;;;;;;;23.90;10.18;;;;;;;15.63;46.35;93444.09;4997100;28;20096;-92
2023/01/14 12:18:38;;;;;;;22.38;9.40;;;;;;;15.66;45.94;93427.50;5021911;28;20049;-93